Flugplatz Marl-Loemühle

Für EDLM sind keine METAR/TAF Berichte vorhanden.
Es werden die Flugwettermeldungen vom Flugplatz Dortmund in 34 km Entfernung angezeigt.

Bericht für EDLW

vom 21.07. um 20:50 UTC

kein Wind

Sichtweite 10 km oder mehr

keine Wolken

Temperatur 18.0°C

Taupunkt 13.0°C

Luftfeuchtigkeit 73%

Luftdruck 1023 hPa

EDLW 212050Z AUTO 00000KT 9999 // NCD 18/13 Q1023

Prognose für EDLW

vom 21.07. um 00:00 UTC

Zwischen 00:00 UTC und 00:00 UTC

Wind 5 kt aus 300°

Sichtweite 10 km oder mehr

keine signifikanten Wettererscheinungen

keine Wolken


Zwischen 00:00 und 00:00 UTC übergehend zu

variable Windrichtung mit 3 kt

Sichtweite 10 km oder mehr

keine signifikanten Wettererscheinungen

keine Wolken


Am 22.07. zwischen 00:00 und 00:00 UTC übergehend zu

Wind 8 kt aus 180°

Sichtweite 10 km oder mehr

keine signifikanten Wettererscheinungen

keine Wolken


Am 22.07. zwischen 00:00 und 00:00 UTC übergehend zu

Wind 10 kt aus 250°

Sichtweite 10 km oder mehr

keine signifikanten Wettererscheinungen

keine Wolken

TAF EDLW 211700Z 2118/2218 30005KT CAVOK BECMG 2118/2121 VRB03KT BECMG 2202/2204 18008KT BECMG 2206/2209 25010KT
Impressum